Weather History for Antigo, WI

Change the Weather History Date:

Wednesday, September 19, 2012

  Actual Average Record
Temperature  
Mean Temperature 44 °F -  
Max Temperature 61 °F 68 °F 82 °F (1955)
Min Temperature 28 °F 45 °F 28 °F (2012)
Degree Days  
Heating Degree Days 20    
Moisture  
Dew Point 38 °F    
Average Humidity 77    
Maximum Humidity 100    
Minimum Humidity 48    
Precipitation  
Precipitation 0.00 in - - ()
Sea Level Pressure  
Sea Level Pressure 29.80 in    
Wind  
Wind Speed 7 mph (SSW)    
Max Wind Speed 25 mph    
Max Gust Speed 37 mph    
Visibility 10 miles    
Events Rain    
Averages and records for this station are not official NWS values.
T = Trace of Precipitation, MM = Missing Value Source: NWS Daily Summary

Daily Weather History Graph

Daily Weather History Graph

Search for Another Location

Airport:

Trip Planner

Search our weather history database for the weather conditions in past years. The results will help you decide how hot, cold, wet, or windy it might be!

Date:

Astronomy

Sep. 19, 2012 Rise Set
Actual Time 6:40 AM CDT 6:58 PM CDT
Civil Twilight 6:11 AM CDT 7:28 PM CDT
Nautical Twilight 5:36 AM CDT 8:02 PM CDT
Astronomical Twilight 5:00 AM CDT 8:38 PM CDT
Moon 11:04 AM CDT (9/19) 8:53 PM CDT (9/19)
Length of Visible Light 13h 17m
Length of Day
12h 18m
Waxing Crescent, 17% of the Moon is Illuminated
Sep 19
Waxing Crescent
Sep 22
First Quarter
Sep 29
Full
Oct 8
Last Quarter
Oct 15
New

Hourly Weather History & Observations

Time (CDT) Temp. Windchill Dew Point Humidity Pressure Visibility Wind Dir Wind Speed Gust Speed Precip Events Conditions
12:15 AM 31.1 °F - 31.1 °F 100% 29.96 in 10.0 mi Calm Calm - N/A   Clear
12:35 AM 30.2 °F - 29.7 °F 98% 29.96 in 10.0 mi Calm Calm - N/A   Clear
12:55 AM 29.8 °F - 29.1 °F 97% 29.96 in 10.0 mi Calm Calm - N/A   Clear
1:15 AM 30.7 °F - 30.4 °F 99% 29.96 in 7.0 mi Calm Calm - N/A   Clear
1:35 AM 30.7 °F - 30.2 °F 98% 29.96 in 10.0 mi Calm Calm - N/A   Clear
1:55 AM 28.9 °F - 28.2 °F 97% 29.96 in 10.0 mi Calm Calm - N/A   Clear
2:15 AM 29.3 °F - 28.6 °F 97% 29.96 in 10.0 mi Calm Calm - N/A   Clear
2:35 AM 28.9 °F - 28.2 °F 97% 29.96 in 4.0 mi Calm Calm - N/A   Clear
2:55 AM 31.8 °F - 30.9 °F 96% 29.95 in 10.0 mi Calm Calm - N/A   Clear
3:15 AM 32.0 °F 28.7 °F 30.9 °F 96% 29.95 in 10.0 mi South 3.5 mph - N/A   Clear
3:35 AM 32.9 °F 29.8 °F 32.0 °F 96% 29.94 in 10.0 mi South 3.5 mph - N/A   Clear
3:55 AM 30.7 °F 24.1 °F 29.1 °F 94% 29.94 in 10.0 mi South 6.9 mph - N/A   Clear
4:15 AM 32.2 °F 25.8 °F 31.5 °F 97% 29.95 in 10.0 mi South 6.9 mph - N/A   Mostly Cloudy
4:55 AM 35.6 °F 28.6 °F 32.9 °F 90% 29.94 in 10.0 mi South 9.2 mph - N/A   Overcast
5:15 AM 36.3 °F 29.5 °F 33.3 °F 89% 29.94 in 10.0 mi South 9.2 mph - N/A   Overcast
5:35 AM 36.7 °F 30.5 °F 33.1 °F 87% 29.93 in 10.0 mi South 8.1 mph - N/A   Overcast
5:55 AM 36.7 °F 29.4 °F 33.3 °F 87% 29.93 in 10.0 mi South 10.4 mph - N/A   Overcast
6:15 AM 37.4 °F 30.3 °F 33.1 °F 84% 29.92 in 10.0 mi South 10.4 mph - N/A   Overcast
6:35 AM 37.6 °F 29.6 °F 32.7 °F 83% 29.90 in 10.0 mi South 12.7 mph - N/A   Overcast
6:55 AM 37.4 °F 30.8 °F 32.5 °F 83% 29.91 in 10.0 mi South 9.2 mph - N/A   Overcast
7:15 AM 38.3 °F 30.9 °F 32.4 °F 79% 29.89 in 10.0 mi South 11.5 mph - N/A   Overcast
7:35 AM 38.5 °F 31.6 °F 32.2 °F 78% 29.89 in 10.0 mi South 10.4 mph - N/A   Overcast
8:15 AM 39.2 °F 31.6 °F 33.1 °F 79% 29.86 in 10.0 mi South 12.7 mph 17.3 mph N/A   Overcast
8:35 AM 39.9 °F 32.5 °F 32.9 °F 76% 29.85 in 10.0 mi South 12.7 mph 19.6 mph N/A   Overcast
8:55 AM 41.4 °F 33.0 °F 32.9 °F 72% 29.83 in 10.0 mi South 17.3 mph 23.0 mph N/A   Scattered Clouds
9:15 AM 43.0 °F 35.4 °F 33.1 °F 68% 29.82 in 10.0 mi South 16.1 mph 23.0 mph N/A   Mostly Cloudy
9:55 AM 46.6 °F - 33.8 °F 61% 29.79 in 10.0 mi South 16.1 mph 25.3 mph N/A   Clear
10:15 AM 49.8 °F - 35.1 °F 57% 29.81 in 10.0 mi South 10.4 mph - N/A   Scattered Clouds
10:35 AM 50.9 °F - 34.7 °F 54% 29.82 in 10.0 mi SSW 9.2 mph - N/A   Scattered Clouds
10:55 AM 52.5 °F - 35.2 °F 52% 29.83 in 10.0 mi SSW 12.7 mph - N/A   Overcast
11:15 AM 53.2 °F - 36.1 °F 52% 29.82 in 10.0 mi South 11.5 mph - N/A   Mostly Cloudy
11:35 AM 56.7 °F - 37.4 °F 49% 29.80 in 10.0 mi South 15.0 mph 18.4 mph N/A   Scattered Clouds
11:55 AM 55.8 °F - 36.1 °F 48% 29.79 in 10.0 mi SSW 19.6 mph 26.5 mph N/A   Mostly Cloudy
12:15 PM 55.6 °F - 36.5 °F 49% 29.79 in 10.0 mi SSW 15.0 mph - N/A   Mostly Cloudy
12:35 PM 57.7 °F - 38.5 °F 49% 29.78 in 10.0 mi SSW 11.5 mph - N/A   Scattered Clouds
12:55 PM 56.8 °F - 38.5 °F 50% 29.79 in 10.0 mi SW 12.7 mph - N/A   Mostly Cloudy
1:15 PM 55.4 °F - 39.7 °F 56% 29.75 in 10.0 mi South 12.7 mph 19.6 mph N/A   Light Drizzle
1:35 PM 58.1 °F - 41.9 °F 55% 29.70 in 10.0 mi SSE 16.1 mph - N/A   Scattered Clouds
1:55 PM 59.7 °F - 41.5 °F 51% 29.68 in 10.0 mi South 19.6 mph 27.6 mph N/A   Mostly Cloudy
2:15 PM 60.3 °F - 41.4 °F 50% 29.66 in 10.0 mi South 19.6 mph 25.3 mph N/A   Mostly Cloudy
2:35 PM 59.5 °F - 41.0 °F 50% 29.68 in 10.0 mi South 25.3 mph 33.4 mph N/A   Mostly Cloudy
2:55 PM 61.3 °F - 42.3 °F 50% 29.67 in 10.0 mi SSW 16.1 mph 26.5 mph N/A   Mostly Cloudy
3:15 PM 59.9 °F - 42.3 °F 52% 29.67 in 10.0 mi South 15.0 mph 23.0 mph N/A   Overcast
3:35 PM 60.3 °F - 43.2 °F 53% 29.69 in 10.0 mi SW 10.4 mph 17.3 mph N/A   Mostly Cloudy
3:55 PM 59.0 °F - 43.3 °F 56% 29.69 in 10.0 mi SW 6.9 mph - N/A Rain Light Rain
4:15 PM 57.6 °F - 46.2 °F 66% 29.69 in 10.0 mi SSW 5.8 mph - N/A Rain Light Rain
4:35 PM 57.2 °F - 50.4 °F 78% 29.68 in 10.0 mi SSE 4.6 mph - N/A   Light Drizzle
4:55 PM 56.8 °F - 49.6 °F 77% 29.67 in 10.0 mi SSE 4.6 mph - N/A   Overcast
5:15 PM 56.7 °F - 49.6 °F 77% 29.67 in 10.0 mi Calm Calm - N/A Rain Light Rain
5:35 PM 55.8 °F - 50.5 °F 83% 29.66 in 10.0 mi SSE 3.5 mph - N/A   Light Drizzle
5:55 PM 55.2 °F - 50.9 °F 85% 29.65 in 10.0 mi SSE 3.5 mph - N/A   Overcast
6:15 PM 56.7 °F - 49.5 °F 77% 29.64 in 10.0 mi SSE 6.9 mph - N/A   Mostly Cloudy
6:35 PM 53.6 °F - 48.7 °F 84% 29.64 in 10.0 mi SSE 5.8 mph - N/A   Mostly Cloudy
6:55 PM 52.9 °F - 47.5 °F 82% 29.64 in 10.0 mi Calm Calm - N/A   Scattered Clouds
7:15 PM 50.5 °F - 41.2 °F 70% 29.73 in 10.0 mi NW 25.3 mph 36.8 mph N/A   Mostly Cloudy
7:35 PM 49.5 °F - 41.9 °F 75% 29.72 in 10.0 mi NW 17.3 mph 28.8 mph N/A   Overcast
7:55 PM 47.3 °F - 43.9 °F 88% 29.71 in 10.0 mi NW 10.4 mph - N/A Rain Rain
8:15 PM 47.5 °F - 44.2 °F 89% 29.72 in 10.0 mi WNW 9.2 mph - N/A Rain Light Rain
8:35 PM 48.2 °F - 43.9 °F 85% 29.72 in 10.0 mi West 6.9 mph - N/A   Overcast
8:55 PM 47.3 °F - 43.2 °F 86% 29.72 in 10.0 mi West 8.1 mph - N/A   Scattered Clouds
9:15 PM 46.6 °F - 42.8 °F 87% 29.71 in 10.0 mi WNW 9.2 mph - N/A   Clear
9:35 PM 46.4 °F 41.9 °F 42.8 °F 87% 29.72 in 10.0 mi WNW 9.2 mph - N/A   Clear
9:55 PM 45.5 °F 41.8 °F 42.3 °F 88% 29.72 in 10.0 mi West 6.9 mph - N/A   Clear
10:15 PM 45.5 °F 41.3 °F 42.8 °F 90% 29.73 in 10.0 mi West 8.1 mph - N/A   Clear
10:35 PM 45.0 °F 40.6 °F 42.4 °F 91% 29.73 in 10.0 mi West 8.1 mph - N/A   Clear
10:55 PM 44.6 °F 39.7 °F 42.4 °F 92% 29.74 in 10.0 mi West 9.2 mph - N/A   Clear
11:35 PM 44.6 °F 40.2 °F 42.8 °F 93% 29.74 in 10.0 mi West 8.1 mph - N/A   Clear
11:55 PM 43.9 °F 39.9 °F 42.6 °F 95% 29.74 in 10.0 mi West 6.9 mph - N/A   Clear